Time;durP1;ratioP1;P1;durP2;ratioP2;P2;SDS_P1;SDS_P2;PMS_P1;PMS_P2;Temp;Humidity;BMP_temperature;BMP_pressure;BME280_temperature;BME280_humidity;BME280_pressure;Samples;Min_cycle;Max_cycle;Signal;HPM_P1;HPM_P2
2022/05/23 00:02:08;;;;;;;1.93;1.63;;;22.60;56.20;;;;;;5060418;28;20816;-9
2022/05/23 00:04:34;;;;;;;3.10;1.50;;;22.60;56.20;;;;;;5060716;28;20168;-9
2022/05/23 00:07:00;;;;;;;2.53;1.80;;;22.60;56.20;;;;;;5042986;28;20179;-9
2022/05/23 00:09:27;;;;;;;1.70;1.60;;;22.60;56.30;;;;;;5060541;28;20633;-9
2022/05/23 00:11:53;;;;;;;1.80;1.70;;;22.60;56.30;;;;;;5059751;28;20268;-9
2022/05/23 00:14:19;;;;;;;1.77;1.60;;;22.60;56.30;;;;;;5059855;28;20599;-9
2022/05/23 00:16:48;;;;;;;1.93;1.60;;;22.60;56.30;;;;;;5042271;28;20174;-9
2022/05/23 00:19:15;;;;;;;2.27;1.77;;;22.60;56.30;;;;;;5042375;28;20195;-9
2022/05/23 00:21:45;;;;;;;2.00;1.80;;;22.60;56.30;;;;;;5060384;28;20219;-9
2022/05/23 00:24:13;;;;;;;1.67;1.57;;;22.60;56.30;;;;;;5042551;28;20274;-9
2022/05/23 00:26:40;;;;;;;1.60;1.43;;;22.60;56.30;;;;;;5060133;28;20577;-9
2022/05/23 00:29:06;;;;;;;3.73;1.47;;;22.50;56.20;;;;;;5060566;28;20213;-9
2022/05/23 00:31:32;;;;;;;1.87;1.50;;;22.50;56.20;;;;;;5060067;28;20247;-9
2022/05/23 00:36:42;;;;;;;2.50;1.70;;;22.50;56.30;;;;;;5059584;28;20179;-9
2022/05/23 00:39:08;;;;;;;2.10;1.67;;;22.50;56.30;;;;;;5042636;28;20167;-9
2022/05/23 00:44:32;;;;;;;1.47;1.37;;;22.50;56.30;;;;;;5059854;28;20470;-9
2022/05/23 00:47:21;;;;;;;1.73;1.63;;;22.50;56.30;;;;;;5059052;28;20176;-9
2022/05/23 00:49:47;;;;;;;2.13;1.63;;;22.50;56.30;;;;;;5060101;28;20313;-9
2022/05/23 00:52:47;;;;;;;2.13;1.80;;;22.50;56.30;;;;;;5042760;28;20299;-9
2022/05/23 00:55:20;;;;;;;2.43;1.50;;;22.50;56.30;;;;;;5046458;28;20191;-9
2022/05/23 00:57:49;;;;;;;1.60;1.50;;;22.50;56.30;;;;;;5059453;28;20195;-9
2022/05/23 01:00:18;;;;;;;2.10;1.90;;;22.50;56.40;;;;;;5058746;28;20288;-9
2022/05/23 01:02:50;;;;;;;1.87;1.57;;;22.50;56.30;;;;;;5059871;28;20169;-9
2022/05/23 01:05:15;;;;;;;2.60;1.83;;;22.40;56.30;;;;;;5042562;28;20554;-9
2022/05/23 01:07:41;;;;;;;1.97;1.70;;;22.40;56.30;;;;;;5042419;28;20212;-9
2022/05/23 01:10:09;;;;;;;1.70;1.60;;;22.40;56.30;;;;;;5059416;28;20660;-9
2022/05/23 01:12:36;;;;;;;1.60;1.40;;;22.40;56.30;;;;;;5058223;28;20274;-9
2022/05/23 01:15:03;;;;;;;1.63;1.50;;;22.40;56.30;;;;;;5060544;28;20441;-9
2022/05/23 01:17:29;;;;;;;2.07;1.60;;;22.40;56.30;;;;;;5059640;28;20442;-9
2022/05/23 01:19:55;;;;;;;2.97;1.80;;;22.40;56.40;;;;;;5041572;28;20191;-9
2022/05/23 01:22:37;;;;;;;2.17;1.60;;;22.40;56.40;;;;;;5059131;28;20506;-9
2022/05/23 01:25:17;;;;;;;1.67;1.57;;;22.40;56.40;;;;;;5058832;28;20179;-9
2022/05/23 01:27:44;;;;;;;1.60;1.50;;;22.40;56.40;;;;;;5059173;28;20173;-9
2022/05/23 01:30:10;;;;;;;1.63;1.50;;;22.40;56.40;;;;;;5059149;28;20179;-9
2022/05/23 01:32:38;;;;;;;1.50;1.40;;;22.30;56.40;;;;;;5059302;28;20160;-9
2022/05/23 01:35:05;;;;;;;2.13;1.50;;;22.30;56.40;;;;;;5059177;28;20712;-9
2022/05/23 01:37:31;;;;;;;1.73;1.63;;;22.30;56.40;;;;;;5041862;28;20554;-9
2022/05/23 01:39:57;;;;;;;1.60;1.50;;;22.30;56.40;;;;;;5058837;28;20262;-9
2022/05/23 01:42:23;;;;;;;2.43;1.60;;;22.30;56.40;;;;;;5056927;28;20189;-9
2022/05/23 01:44:48;;;;;;;1.70;1.40;;;22.30;56.40;;;;;;5044416;28;20194;-9
2022/05/23 01:47:17;;;;;;;1.70;1.60;;;22.30;56.40;;;;;;5057849;28;20180;-9
2022/05/23 01:49:43;;;;;;;1.90;1.70;;;22.30;56.40;;;;;;5041431;28;20187;-9
2022/05/23 01:52:10;;;;;;;1.63;1.53;;;22.30;56.40;;;;;;5059041;28;20476;-9
2022/05/23 01:54:37;;;;;;;1.60;1.50;;;22.30;56.50;;;;;;5058638;28;20159;-9
2022/05/23 01:57:04;;;;;;;1.70;1.60;;;22.30;56.50;;;;;;5058447;28;20179;-9
2022/05/23 02:02:14;;;;;;;1.60;1.50;;;22.30;56.50;;;;;;5058328;28;20190;-9
2022/05/23 02:04:42;;;;;;;1.60;1.50;;;22.30;56.60;;;;;;5058210;28;20198;-9
2022/05/23 02:07:07;;;;;;;1.53;1.43;;;22.20;56.50;;;;;;5058059;28;20183;-9
2022/05/23 02:09:34;;;;;;;2.00;1.70;;;22.20;56.50;;;;;;5040496;28;20188;-9
2022/05/23 02:12:00;;;;;;;1.50;1.40;;;22.20;56.50;;;;;;5057510;28;20219;-9
2022/05/23 02:14:26;;;;;;;2.40;1.67;;;22.20;56.50;;;;;;5058112;28;20249;-9
2022/05/23 02:16:52;;;;;;;1.77;1.60;;;22.20;56.50;;;;;;5058672;28;20187;-9
2022/05/23 02:19:18;;;;;;;1.63;1.40;;;22.20;56.50;;;;;;5057638;28;20531;-9
2022/05/23 02:21:43;;;;;;;2.33;1.60;;;22.20;56.60;;;;;;5057428;28;20235;-9
2022/05/23 02:24:09;;;;;;;1.60;1.50;;;22.20;56.60;;;;;;5039622;28;20186;-9
2022/05/23 02:26:36;;;;;;;1.50;1.40;;;22.20;56.60;;;;;;5039678;28;20182;-9
2022/05/23 02:29:02;;;;;;;1.40;1.30;;;22.20;56.60;;;;;;5022968;28;20177;-9
2022/05/23 02:31:28;;;;;;;1.57;1.47;;;22.20;56.70;;;;;;5056628;28;20201;-9
2022/05/23 02:33:54;;;;;;;1.70;1.60;;;22.20;56.70;;;;;;5057425;28;20169;-9
2022/05/23 02:36:20;;;;;;;2.57;1.70;;;22.20;56.70;;;;;;5039984;28;20190;-9
2022/05/23 02:38:46;;;;;;;2.60;1.53;;;22.10;56.70;;;;;;5057360;28;20157;-9
2022/05/23 02:41:11;;;;;;;1.60;1.50;;;22.10;56.70;;;;;;5056923;28;20190;-9
2022/05/23 02:43:39;;;;;;;2.73;1.70;;;22.10;56.70;;;;;;5040720;28;20631;-9
2022/05/23 02:46:05;;;;;;;1.87;1.50;;;22.10;56.70;;;;;;5056851;28;20194;-9
2022/05/23 02:48:31;;;;;;;2.33;1.50;;;22.10;56.80;;;;;;5057165;28;20173;-9
2022/05/23 02:50:56;;;;;;;1.70;1.60;;;22.10;56.80;;;;;;5056394;28;20218;-9
2022/05/23 02:53:22;;;;;;;1.77;1.57;;;22.10;56.80;;;;;;5038988;28;20261;-9
2022/05/23 02:55:48;;;;;;;1.77;1.50;;;22.10;56.80;;;;;;5056558;28;20172;-9
2022/05/23 02:58:14;;;;;;;1.43;1.33;;;22.10;56.80;;;;;;5057460;28;20182;-9
2022/05/23 03:00:39;;;;;;;1.70;1.60;;;22.10;56.80;;;;;;5039663;28;20215;-9
2022/05/23 03:03:08;;;;;;;1.73;1.60;;;22.10;56.80;;;;;;5056925;28;20165;-9
2022/05/23 03:06:00;;;;;;;1.50;1.40;;;22.10;56.80;;;;;;5056548;28;20218;-9
2022/05/23 03:08:27;;;;;;;1.60;1.50;;;22.10;56.80;;;;;;5053721;28;20582;-9
2022/05/23 03:10:58;;;;;;;2.17;1.50;;;22.10;56.90;;;;;;5056358;28;20278;-9
2022/05/23 03:13:23;;;;;;;1.60;1.50;;;22.10;56.90;;;;;;5055875;28;20165;-9
2022/05/23 03:15:49;;;;;;;1.60;1.50;;;22.10;56.90;;;;;;5056373;28;20240;-9
2022/05/23 03:18:15;;;;;;;1.67;1.33;;;22.10;56.90;;;;;;4990967;28;1360756;-9
2022/05/23 03:20:41;;;;;;;1.80;1.50;;;22.00;56.90;;;;;;5056830;28;20186;-9
2022/05/23 03:28:45;;;;;;;1.53;1.40;;;22.00;57.30;;;;;;5057183;28;20181;-9
2022/05/23 03:31:11;;;;;;;1.47;1.37;;;22.00;56.90;;;;;;5057166;28;20248;-9
2022/05/23 03:33:36;;;;;;;1.60;1.40;;;22.00;56.90;;;;;;5056532;28;20245;-9
2022/05/23 03:36:03;;;;;;;2.27;1.53;;;22.00;56.90;;;;;;5059896;28;20162;-9
2022/05/23 03:38:29;;;;;;;1.50;1.40;;;22.00;56.90;;;;;;5043284;28;20584;-9
2022/05/23 03:40:55;;;;;;;1.60;1.50;;;22.00;56.90;;;;;;5060247;28;20186;-9
2022/05/23 03:43:21;;;;;;;1.60;1.50;;;22.00;56.90;;;;;;5061240;28;20177;-9
2022/05/23 03:45:47;;;;;;;2.10;1.50;;;22.00;56.90;;;;;;5043992;28;20172;-9
2022/05/23 03:48:13;;;;;;;1.77;1.30;;;22.00;56.90;;;;;;5043601;28;20179;-9
2022/05/23 03:50:39;;;;;;;1.50;1.40;;;22.00;56.90;;;;;;5043951;28;20196;-9
2022/05/23 03:53:05;;;;;;;1.53;1.43;;;22.00;56.90;;;;;;5043020;28;20179;-9
2022/05/23 03:55:31;;;;;;;1.57;1.40;;;22.00;56.90;;;;;;5060416;28;20179;-9
2022/05/23 03:57:57;;;;;;;1.70;1.60;;;22.00;56.90;;;;;;5060413;28;20543;-9
2022/05/23 04:00:23;;;;;;;1.50;1.40;;;22.00;56.90;;;;;;5059458;28;20200;-9
2022/05/23 04:02:49;;;;;;;1.43;1.33;;;22.00;57.00;;;;;;5059523;28;20182;-9
2022/05/23 04:05:17;;;;;;;1.67;1.47;;;22.00;56.90;;;;;;5059890;28;20172;-9
2022/05/23 04:07:44;;;;;;;1.60;1.50;;;22.00;56.90;;;;;;5059698;28;20188;-9
2022/05/23 04:10:16;;;;;;;1.50;1.40;;;22.00;56.90;;;;;;5060043;28;20240;-9
2022/05/23 04:12:42;;;;;;;1.50;1.40;;;22.00;56.90;;;;;;5059533;28;20184;-9
2022/05/23 04:15:09;;;;;;;1.50;1.40;;;22.00;56.90;;;;;;5041561;28;20168;-9
2022/05/23 04:17:35;;;;;;;1.73;1.40;;;22.00;57.00;;;;;;5058528;28;20185;-9
2022/05/23 04:20:01;;;;;;;1.63;1.53;;;22.00;56.90;;;;;;5060077;28;20267;-9
2022/05/23 04:22:27;;;;;;;1.83;1.53;;;22.00;56.90;;;;;;5043077;28;20195;-9
2022/05/23 04:24:52;;;;;;;1.70;1.50;;;22.00;56.90;;;;;;5059790;28;20260;-9
2022/05/23 04:27:18;;;;;;;1.30;1.20;;;22.00;57.00;;;;;;5042559;28;20218;-9
2022/05/23 04:29:44;;;;;;;2.30;1.53;;;22.00;56.90;;;;;;5059581;28;20236;-9
2022/05/23 04:35:12;;;;;;;2.30;1.70;;;21.90;56.90;;;;;;5059974;28;20211;-9
2022/05/23 04:35:14;;;;;;;4.00;1.90;;;21.90;56.90;;;;;;5059676;28;20277;-9
2022/05/23 04:37:50;;;;;;;1.50;1.30;;;21.90;56.90;;;;;;5041998;28;20599;-9
2022/05/23 04:40:19;;;;;;;1.60;1.50;;;21.90;56.90;;;;;;5058713;28;20148;-9
2022/05/23 04:42:45;;;;;;;1.50;1.40;;;21.90;57.30;;;;;;5059383;28;20168;-9
2022/05/23 04:45:12;;;;;;;2.60;1.70;;;21.90;56.90;;;;;;5059177;28;20246;-9
2022/05/23 04:50:25;;;;;;;1.80;1.50;;;21.90;56.90;;;;;;5059004;28;20218;-9
2022/05/23 04:52:52;;;;;;;1.40;1.30;;;21.90;56.90;;;;;;5041928;28;20173;-9
2022/05/23 04:55:19;;;;;;;2.03;1.30;;;21.90;56.90;;;;;;5059178;28;20161;-9
2022/05/23 04:57:45;;;;;;;2.07;1.70;;;21.90;56.90;;;;;;5040187;28;20172;-9
2022/05/23 05:00:17;;;;;;;1.87;1.57;;;21.90;56.90;;;;;;5040264;28;20237;-9
2022/05/23 05:02:42;;;;;;;1.70;1.60;;;22.00;57.00;;;;;;5041277;28;20172;-9
2022/05/23 05:05:08;;;;;;;1.70;1.60;;;22.00;57.00;;;;;;5040810;28;20244;-9
2022/05/23 05:07:34;;;;;;;2.47;1.40;;;22.00;57.00;;;;;;5058128;28;20168;-9
2022/05/23 05:10:03;;;;;;;1.40;1.30;;;22.00;57.00;;;;;;5040463;28;20184;-9
2022/05/23 05:12:29;;;;;;;1.70;1.43;;;22.00;57.00;;;;;;5057755;28;20278;-9
2022/05/23 05:14:55;;;;;;;1.90;1.57;;;22.00;57.00;;;;;;5057316;28;20258;-9
2022/05/23 05:17:21;;;;;;;1.50;1.40;;;22.00;57.00;;;;;;5057482;28;20175;-9
2022/05/23 05:19:47;;;;;;;2.83;1.47;;;22.00;57.00;;;;;;5040799;28;20275;-9
2022/05/23 05:22:13;;;;;;;1.97;1.40;;;22.00;57.00;;;;;;5039522;28;20848;-9
2022/05/23 05:24:39;;;;;;;1.80;1.53;;;22.00;57.00;;;;;;5056833;28;20181;-9
2022/05/23 05:27:04;;;;;;;2.30;1.50;;;22.00;57.00;;;;;;5057279;28;20173;-9
2022/05/23 05:29:31;;;;;;;1.40;1.30;;;22.00;57.10;;;;;;5039764;28;20175;-9
2022/05/23 05:32:08;;;;;;;3.90;1.90;;;22.00;57.20;;;;;;5056443;28;20200;-9
2022/05/23 05:34:44;;;;;;;1.90;1.50;;;22.00;57.30;;;;;;5056654;28;20166;-9
2022/05/23 05:37:25;;;;;;;2.20;1.40;;;22.00;57.40;;;;;;5056284;28;20249;-9
2022/05/23 05:39:52;;;;;;;2.37;1.40;;;22.00;57.50;;;;;;5038783;28;20172;-9
2022/05/23 05:42:26;;;;;;;2.73;1.50;;;22.10;57.60;;;;;;5056045;28;20179;-9
2022/05/23 05:45:07;;;;;;;2.20;1.53;;;22.10;57.70;;;;;;5038306;28;20578;-9
2022/05/23 05:47:36;;;;;;;1.90;1.63;;;22.10;57.70;;;;;;5056114;28;20578;-9
2022/05/23 05:50:11;;;;;;;3.97;1.70;;;22.10;57.80;;;;;;5038418;28;20247;-9
2022/05/23 05:52:39;;;;;;;1.70;1.60;;;22.10;57.90;;;;;;5056651;28;20186;-9
2022/05/23 05:55:10;;;;;;;2.43;1.77;;;22.10;57.90;;;;;;5039116;28;20216;-9
2022/05/23 05:57:36;;;;;;;3.70;1.87;;;22.10;57.90;;;;;;5056077;28;20183;-9
2022/05/23 06:00:03;;;;;;;2.20;1.80;;;22.20;57.90;;;;;;5056154;28;20168;-9
2022/05/23 06:02:28;;;;;;;3.07;1.90;;;22.20;57.90;;;;;;5038560;28;20237;-9
2022/05/23 06:04:54;;;;;;;1.93;1.77;;;22.20;57.80;;;;;;5056367;28;20266;-9
2022/05/23 06:11:23;;;;;;;3.03;2.00;;;22.30;57.70;;;;;;5055649;28;20171;-9
2022/05/23 06:12:56;;;;;;;2.30;1.90;;;22.30;57.60;;;;;;5049557;28;20616;-9
2022/05/23 06:15:43;;;;;;;2.43;2.10;;;22.40;57.60;;;;;;5037886;28;20570;-9
2022/05/23 06:18:08;;;;;;;3.83;1.87;;;22.30;57.50;;;;;;5055734;28;20221;-9
2022/05/23 06:20:34;;;;;;;2.37;2.00;;;22.40;57.50;;;;;;5037648;28;20180;-9
2022/05/23 06:23:01;;;;;;;3.03;2.00;;;22.40;57.60;;;;;;5055265;28;20184;-9
2022/05/23 06:25:27;;;;;;;3.30;2.10;;;22.40;57.60;;;;;;5049344;28;20173;-9
2022/05/23 06:27:53;;;;;;;2.53;2.00;;;22.40;57.50;;;;;;5037452;28;20180;-9
2022/05/23 06:30:19;;;;;;;2.37;2.17;;;22.40;57.40;;;;;;5037635;28;20176;-9
2022/05/23 06:32:47;;;;;;;2.60;1.83;;;22.40;57.40;;;;;;5054055;28;20223;-9
2022/05/23 06:35:13;;;;;;;2.93;2.10;;;22.40;57.40;;;;;;5055963;28;20188;-9
2022/05/23 06:37:41;;;;;;;2.77;2.00;;;22.50;57.40;;;;;;5042502;28;20200;-9
2022/05/23 06:40:11;;;;;;;2.97;2.20;;;22.40;57.70;;;;;;5055322;28;20732;-9
2022/05/23 06:42:37;;;;;;;3.47;2.00;;;22.50;57.30;;;;;;5055128;28;20203;-9
2022/05/23 06:45:05;;;;;;;2.83;2.20;;;22.50;57.30;;;;;;5037845;28;20176;-9
2022/05/23 06:47:30;;;;;;;3.33;2.30;;;22.50;57.20;;;;;;5055372;28;20267;-9
2022/05/23 06:49:58;;;;;;;2.97;2.00;;;22.60;57.10;;;;;;5055352;28;20296;-9
2022/05/23 06:52:23;;;;;;;2.83;2.07;;;22.70;56.70;;;;;;5055243;28;20577;-9
2022/05/23 06:54:49;;;;;;;5.77;2.10;;;22.80;56.50;;;;;;5055444;28;20590;-9
2022/05/23 06:57:15;;;;;;;3.30;2.30;;;22.90;56.20;;;;;;5037387;28;20585;-9
2022/05/23 06:59:44;;;;;;;2.50;2.20;;;23.00;56.00;;;;;;5055097;28;20174;-9
2022/05/23 07:02:10;;;;;;;3.17;2.30;;;23.00;56.00;;;;;;5055115;28;20683;-9
2022/05/23 07:12:53;;;;;;;2.40;2.10;;;23.10;55.90;;;;;;5055163;28;20715;-9
2022/05/23 07:15:19;;;;;;;5.77;2.30;;;23.10;55.80;;;;;;5055614;28;20266;-9
2022/05/23 07:17:45;;;;;;;4.63;2.30;;;23.10;55.60;;;;;;5055135;28;20181;-9
2022/05/23 07:20:11;;;;;;;2.60;2.03;;;23.20;55.50;;;;;;5037241;28;20168;-9
2022/05/23 07:22:38;;;;;;;3.13;2.10;;;23.20;55.30;;;;;;5054073;28;20269;-9
2022/05/23 07:25:06;;;;;;;2.50;2.10;;;23.30;55.30;;;;;;5054388;28;20172;-9
2022/05/23 07:27:32;;;;;;;3.00;2.10;;;23.30;55.20;;;;;;5054416;28;20183;-9
2022/05/23 07:29:57;;;;;;;2.60;2.10;;;23.30;55.10;;;;;;5054988;28;20186;-9
2022/05/23 07:32:23;;;;;;;2.17;1.97;;;23.30;55.00;;;;;;5055438;28;20204;-9
2022/05/23 07:34:49;;;;;;;3.17;2.10;;;23.40;55.00;;;;;;5054035;28;20276;-9
2022/05/23 07:37:15;;;;;;;4.07;2.47;;;23.30;55.00;;;;;;5053992;28;20176;-9
2022/05/23 07:39:41;;;;;;;3.97;2.03;;;23.40;55.00;;;;;;5036990;28;20690;-9
2022/05/23 07:42:09;;;;;;;2.63;2.03;;;23.40;54.90;;;;;;5054304;28;20207;-9
2022/05/23 07:44:37;;;;;;;3.03;1.80;;;23.60;54.60;;;;;;5054991;28;20266;-9
2022/05/23 07:47:05;;;;;;;2.17;1.83;;;23.70;54.30;;;;;;5054759;28;20152;-9
2022/05/23 07:49:31;;;;;;;3.63;2.10;;;23.80;54.10;;;;;;5037477;28;20192;-9
2022/05/23 07:51:57;;;;;;;3.57;2.40;;;23.90;53.90;;;;;;5054356;28;20195;-9
2022/05/23 08:02:49;;;;;;;3.10;2.20;;;23.90;53.70;;;;;;5053663;28;20685;-9
2022/05/23 08:05:15;;;;;;;2.63;1.97;;;23.90;53.60;;;;;;5054245;28;20267;-9
2022/05/23 08:07:41;;;;;;;3.07;2.10;;;23.90;53.60;;;;;;5054156;28;20172;-9
2022/05/23 08:10:07;;;;;;;2.60;2.20;;;24.00;53.60;;;;;;5054090;28;20662;-9
2022/05/23 08:12:35;;;;;;;2.27;1.93;;;23.90;53.60;;;;;;5053804;28;20196;-9
2022/05/23 08:15:01;;;;;;;2.47;1.97;;;23.90;53.70;;;;;;5037103;28;20235;-9
2022/05/23 08:17:27;;;;;;;2.23;2.00;;;23.90;53.70;;;;;;5055016;28;20187;-9
2022/05/23 08:19:54;;;;;;;3.13;2.00;;;24.00;53.70;;;;;;5036870;28;20238;-9
2022/05/23 08:22:20;;;;;;;3.77;1.90;;;24.00;53.60;;;;;;5057287;28;20188;-9
2022/05/23 08:24:46;;;;;;;2.87;2.10;;;24.00;53.60;;;;;;5058899;28;20172;-9
2022/05/23 08:27:14;;;;;;;2.60;1.87;;;24.00;53.60;;;;;;5058288;28;20250;-9
2022/05/23 08:29:40;;;;;;;3.03;2.00;;;24.00;53.70;;;;;;5057793;28;20181;-9
2022/05/23 08:32:09;;;;;;;1.97;1.83;;;24.00;53.80;;;;;;5056961;28;20204;-9
2022/05/23 08:34:35;;;;;;;3.67;1.90;;;24.00;53.90;;;;;;5043450;28;20220;-9
2022/05/23 08:37:01;;;;;;;4.10;2.00;;;24.00;54.00;;;;;;5077377;28;20211;-9
2022/05/23 08:39:27;;;;;;;3.33;1.80;;;24.00;54.00;;;;;;5077970;28;20199;-9
2022/05/23 08:41:53;;;;;;;2.80;1.90;;;24.10;54.00;;;;;;5077127;28;20628;-9
2022/05/23 08:45:00;;;;;;;2.50;1.80;;;24.20;53.70;;;;;;5059842;28;20187;-9
2022/05/23 08:47:51;;;;;;;3.67;2.33;;;24.30;53.60;;;;;;5064422;28;20589;-9
2022/05/23 08:50:19;;;;;;;2.70;2.10;;;24.30;53.70;;;;;;5073630;28;20191;-9
2022/05/23 08:53:03;;;;;;;4.07;2.17;;;24.40;53.60;;;;;;5060163;28;20194;-9
2022/05/23 08:55:33;;;;;;;2.97;1.90;;;24.50;53.40;;;;;;5077618;28;20213;-9
2022/05/23 08:58:13;;;;;;;2.23;1.90;;;24.60;53.50;;;;;;5059832;28;20175;-9
2022/05/23 09:00:42;;;;;;;3.60;2.20;;;24.60;53.20;;;;;;5059824;28;20578;-9
2022/05/23 09:03:22;;;;;;;2.10;1.90;;;24.70;53.30;;;;;;5076466;28;20570;-9
2022/05/23 09:06:13;;;;;;;3.22;1.83;;;24.80;53.10;;;;;;5076924;28;20525;-9
2022/05/23 09:08:55;;;;;;;2.03;1.80;;;24.90;53.20;;;;;;5048398;28;20198;-9
2022/05/23 09:11:32;;;;;;;3.03;1.90;;;25.00;52.90;;;;;;5059410;28;20210;-9
2022/05/23 09:13:59;;;;;;;2.63;2.08;;;25.10;52.90;;;;;;5077165;28;20163;-9
2022/05/23 09:16:40;;;;;;;3.13;2.28;;;25.10;52.80;;;;;;5059561;28;20258;-9
2022/05/23 09:19:46;;;;;;;3.45;2.05;;;25.10;52.70;;;;;;5059317;28;20176;-9
2022/05/23 09:22:18;;;;;;;2.75;1.95;;;25.10;52.70;;;;;;5075816;28;20272;-9
2022/05/23 09:24:47;;;;;;;2.53;2.00;;;25.20;52.70;;;;;;5059198;28;20686;-9
2022/05/23 09:27:19;;;;;;;3.03;2.25;;;25.30;52.70;;;;;;5059083;28;20207;-9
2022/05/23 09:29:54;;;;;;;2.65;1.95;;;25.20;52.60;;;;;;5070877;28;20171;-9
2022/05/23 09:32:32;;;;;;;3.22;2.10;;;25.30;52.70;;;;;;5074277;28;20203;-9
2022/05/23 09:35:13;;;;;;;2.95;1.98;;;25.40;52.60;;;;;;5073942;28;20209;-9
2022/05/23 09:38:16;;;;;;;3.22;2.30;;;25.40;52.60;;;;;;5075269;28;20175;-9
2022/05/23 09:40:42;;;;;;;2.00;1.80;;;25.40;52.50;;;;;;5024171;28;20186;-9
2022/05/23 09:49:21;;;;;;;3.03;1.85;;;25.60;52.60;;;;;;5075520;28;20236;-9
2022/05/23 09:52:27;;;;;;;2.88;2.03;;;25.60;52.50;;;;;;5075182;28;20442;-9
2022/05/23 09:55:20;;;;;;;2.08;1.80;;;25.60;52.70;;;;;;4972943;28;20187;-9
2022/05/23 09:58:01;;;;;;;4.22;2.05;;;25.60;52.80;;;;;;5056957;28;20245;-9
2022/05/23 10:00:40;;;;;;;2.92;1.90;;;25.50;52.80;;;;;;5074333;28;20465;-9
2022/05/23 10:03:26;;;;;;;2.92;2.03;;;25.60;52.80;;;;;;5074171;28;20167;-9
2022/05/23 10:06:07;;;;;;;2.50;2.13;;;25.60;52.80;;;;;;5074284;28;20225;-9
2022/05/23 10:08:35;;;;;;;3.60;1.88;;;25.70;52.90;;;;;;5074859;28;20163;-9
2022/05/23 10:11:04;;;;;;;2.40;2.00;;;25.60;52.90;;;;;;5056724;28;20199;-9
2022/05/23 10:13:36;;;;;;;2.28;1.90;;;25.60;53.00;;;;;;5053823;28;20171;-9
2022/05/23 10:16:45;;;;;;;2.20;1.85;;;25.60;53.10;;;;;;5074768;28;20566;-9
2022/05/23 10:19:22;;;;;;;2.25;1.88;;;25.60;53.20;;;;;;4974077;28;20461;-9
2022/05/23 10:22:03;;;;;;;2.90;1.80;;;25.60;53.30;;;;;;5043506;28;20206;-9
2022/05/23 10:24:30;;;;;;;2.85;1.80;;;25.60;53.40;;;;;;5074940;28;20181;-9
2022/05/23 10:27:09;;;;;;;2.70;2.00;;;25.60;53.50;;;;;;5075340;28;20168;-9
2022/05/23 10:29:52;;;;;;;1.67;1.58;;;25.60;53.50;;;;;;5056788;28;20552;-9
2022/05/23 10:32:51;;;;;;;2.60;1.63;;;25.60;53.60;;;;;;5070223;28;20589;-9
2022/05/23 10:42:23;;;;;;;2.80;1.70;;;25.60;53.70;;;;;;5069459;28;20709;-9
2022/05/23 10:45:13;;;;;;;3.07;1.80;;;25.60;53.80;;;;;;5051152;28;20176;-9
2022/05/23 10:48:03;;;;;;;1.90;1.70;;;25.60;53.80;;;;;;5071697;28;20204;-9
2022/05/23 10:51:08;;;;;;;3.60;1.80;;;25.60;53.90;;;;;;5075061;28;20191;-9
2022/05/23 10:54:11;;;;;;;1.97;1.70;;;25.60;54.00;;;;;;5053423;28;20172;-9
2022/05/23 10:56:37;;;;;;;5.20;1.87;;;25.60;54.10;;;;;;5056378;28;20484;-9
2022/05/23 10:59:27;;;;;;;2.17;1.83;;;25.60;54.10;;;;;;5056935;28;20313;-9
2022/05/23 11:02:27;;;;;;;3.13;2.00;;;25.60;54.20;;;;;;5057154;28;20201;-9
2022/05/23 11:05:30;;;;;;;2.00;1.80;;;25.60;54.20;;;;;;5074535;28;20266;-9
2022/05/23 11:08:14;;;;;;;2.43;1.80;;;25.60;54.30;;;;;;5074494;28;20826;-9
2022/05/23 11:10:53;;;;;;;2.00;1.60;;;25.60;54.20;;;;;;5074509;28;20152;-9
2022/05/23 11:13:49;;;;;;;2.87;1.90;;;25.60;54.30;;;;;;5065903;28;20182;-9
2022/05/23 11:16:20;;;;;;;2.43;1.93;;;25.60;54.40;;;;;;5037876;28;20225;-9
2022/05/23 11:18:51;;;;;;;2.57;1.80;;;25.60;54.40;;;;;;5074815;28;20167;-9
2022/05/23 11:21:46;;;;;;;2.30;2.10;;;25.60;54.50;;;;;;5052765;28;20203;-9
2022/05/23 11:24:20;;;;;;;2.30;1.70;;;25.60;54.50;;;;;;5055655;28;20529;-9
2022/05/23 11:26:51;;;;;;;4.13;2.03;;;25.60;54.60;;;;;;5074021;28;20172;-9
2022/05/23 11:41:44;;;;;;;3.47;1.83;;;25.60;55.10;;;;;;5073808;28;20170;-9
2022/05/23 11:44:42;;;;;;;3.47;2.10;;;25.60;55.10;;;;;;5073806;28;20163;-9
2022/05/23 11:47:18;;;;;;;4.10;2.03;;;25.60;55.40;;;;;;5069708;28;20499;-9
2022/05/23 11:49:48;;;;;;;3.10;1.97;;;25.60;55.30;;;;;;5074490;28;20185;-9
2022/05/23 11:52:24;;;;;;;2.10;1.90;;;25.60;55.30;;;;;;5074299;28;20191;-9
2022/05/23 11:54:50;;;;;;;4.87;2.10;;;25.60;55.30;;;;;;5055902;28;20216;-9
2022/05/23 11:57:41;;;;;;;3.67;1.83;;;25.60;55.20;;;;;;5069432;28;20187;-9
2022/05/23 12:00:25;;;;;;;2.10;1.80;;;25.60;55.20;;;;;;5071186;28;20441;-9
2022/05/23 12:03:10;;;;;;;3.87;2.00;;;25.60;55.30;;;;;;5069613;28;20159;-9
2022/05/23 12:05:36;;;;;;;4.27;1.70;;;25.60;55.60;;;;;;5067299;28;20167;-9
2022/05/23 12:08:05;;;;;;;3.40;1.70;;;25.70;55.70;;;;;;5070421;28;20322;-9
2022/05/23 12:10:36;;;;;;;4.30;1.60;;;25.70;55.60;;;;;;5070444;28;20240;-9
2022/05/23 12:13:14;;;;;;;2.93;2.00;;;25.70;55.80;;;;;;5070311;28;20174;-9
2022/05/23 12:15:42;;;;;;;3.17;1.80;;;25.70;55.90;;;;;;5070382;28;20245;-9
2022/05/23 12:18:19;;;;;;;4.03;1.83;;;25.70;56.00;;;;;;5053557;28;20322;-9
2022/05/23 12:31:11;;;;;;;2.67;1.80;;;25.70;56.40;;;;;;5074706;28;20214;-9
2022/05/23 12:33:42;;;;;;;3.27;1.67;;;25.70;56.50;;;;;;5051430;28;20211;-9
2022/05/23 12:36:11;;;;;;;4.10;1.90;;;25.70;56.60;;;;;;5056348;28;20286;-9
2022/05/23 12:38:49;;;;;;;3.30;2.03;;;25.70;56.90;;;;;;5039817;28;20203;-9
2022/05/23 12:41:30;;;;;;;4.10;2.03;;;25.70;56.80;;;;;;5055908;28;20199;-9
2022/05/23 12:44:04;;;;;;;4.23;1.80;;;25.70;56.90;;;;;;5052294;28;20241;-9
2022/05/23 12:46:51;;;;;;;6.13;1.83;;;25.70;57.10;;;;;;5030284;28;20178;-9
2022/05/23 12:49:23;;;;;;;2.20;2.00;;;25.70;57.10;;;;;;5050158;28;20226;-9
2022/05/23 12:52:27;;;;;;;2.43;1.63;;;25.70;57.10;;;;;;5032451;28;20484;-9
2022/05/23 12:55:05;;;;;;;4.17;2.10;;;25.70;57.20;;;;;;5047901;28;20578;-9
2022/05/23 12:57:49;;;;;;;2.77;2.07;;;25.70;57.20;;;;;;5047637;28;20271;-9
2022/05/23 13:00:27;;;;;;;3.40;1.90;;;25.70;57.50;;;;;;5049781;28;20176;-9
2022/05/23 13:03:09;;;;;;;4.73;1.97;;;25.70;57.50;;;;;;5046384;28;20235;-9
2022/05/23 13:05:43;;;;;;;3.67;1.93;;;25.70;57.40;;;;;;5049076;28;20241;-9
2022/05/23 13:08:27;;;;;;;2.70;1.87;;;25.70;57.40;;;;;;5047423;28;20175;-9
2022/05/23 13:11:04;;;;;;;3.07;2.13;;;25.70;57.40;;;;;;5021441;28;20732;-9
2022/05/23 13:17:10;;;;;;;4.53;1.80;;;25.70;57.40;;;;;;5040217;28;20262;-9
2022/05/23 13:22:38;;;;;;;2.23;1.70;;;25.70;57.50;;;;;;5042723;28;20469;-9
2022/05/23 13:28:26;;;;;;;4.43;2.03;;;25.70;58.10;;;;;;5043238;28;20175;-9
2022/05/23 13:30:54;;;;;;;6.60;2.40;;;25.70;58.70;;;;;;5043691;28;20556;-9
2022/05/23 13:33:31;;;;;;;5.57;1.93;;;25.70;59.20;;;;;;5046885;28;20513;-9
2022/05/23 13:36:03;;;;;;;3.90;2.10;;;25.70;59.50;;;;;;5039904;28;20256;-9
2022/05/23 13:38:35;;;;;;;5.60;2.27;;;25.70;59.60;;;;;;5046512;28;20192;-9
2022/05/23 13:41:04;;;;;;;4.90;2.17;;;25.60;59.50;;;;;;5048003;28;20476;-9
2022/05/23 13:43:42;;;;;;;2.83;2.20;;;25.60;59.70;;;;;;5050296;28;20173;-9
2022/05/23 13:46:32;;;;;;;4.87;2.33;;;25.60;59.80;;;;;;5043829;28;20229;-9
2022/05/23 13:53:01;;;;;;;4.20;2.20;;;25.60;60.00;;;;;;5039820;28;20269;-9
2022/05/23 13:56:08;;;;;;;3.67;2.17;;;25.60;60.30;;;;;;5016542;28;20365;-9
2022/05/23 13:58:42;;;;;;;4.00;2.40;;;25.60;60.70;;;;;;5042716;28;20160;-9
2022/05/23 14:01:54;;;;;;;4.47;2.13;;;25.60;60.40;;;;;;5013307;28;20180;-9
2022/05/23 14:04:37;;;;;;;2.80;2.03;;;25.60;60.50;;;;;;5038118;28;20183;-9
2022/05/23 14:07:30;;;;;;;2.27;1.63;;;25.60;61.10;;;;;;5023181;28;20413;-9
2022/05/23 14:09:56;;;;;;;5.07;2.17;;;25.60;61.40;;;;;;5036615;28;20297;-9
2022/05/23 14:12:40;;;;;;;3.07;2.37;;;25.50;61.40;;;;;;5046130;28;20198;-9
2022/05/23 14:15:10;;;;;;;2.70;2.10;;;25.50;61.70;;;;;;5028026;28;20242;-9
2022/05/23 14:18:14;;;;;;;4.30;2.10;;;25.50;61.70;;;;;;5047461;28;20174;-9
2022/05/23 14:20:43;;;;;;;5.07;2.27;;;25.50;61.80;;;;;;5046092;28;20601;-9
2022/05/23 14:23:11;;;;;;;2.37;2.00;;;25.50;62.30;;;;;;5049426;28;20171;-9
2022/05/23 14:25:55;;;;;;;4.87;2.47;;;25.50;62.20;;;;;;5052998;28;20179;-9
2022/05/23 14:28:47;;;;;;;3.27;2.10;;;25.40;62.90;;;;;;5037320;28;20197;-9
2022/05/23 14:34:35;;;;;;;2.10;1.90;;;25.40;61.00;;;;;;5070388;28;20161;-9
2022/05/23 14:37:08;;;;;;;3.63;2.30;;;25.40;60.70;;;;;;5042220;28;20175;-9
2022/05/23 14:39:35;;;;;;;3.20;2.30;;;25.40;60.70;;;;;;5057279;28;20243;-9
2022/05/23 14:42:23;;;;;;;3.87;2.07;;;25.40;60.70;;;;;;5065647;28;20178;-9
2022/05/23 14:45:31;;;;;;;4.27;1.93;;;25.40;60.70;;;;;;5065264;28;20175;-9
2022/05/23 14:48:32;;;;;;;15.00;2.23;;;25.40;60.60;;;;;;5063647;28;20294;-9
2022/05/23 14:51:42;;;;;;;3.43;2.07;;;25.40;60.60;;;;;;5065867;28;20296;-9
2022/05/23 14:57:17;;;;;;;2.50;1.87;;;25.40;60.50;;;;;;5065326;28;20255;-9
2022/05/23 15:03:27;;;;;;;4.17;1.90;;;25.40;60.50;;;;;;5070964;28;20178;-9